createdAt,value
2017-07-30T00:00:20.666Z,23.93
2017-07-30T00:01:01.269Z,23.95
2017-07-30T00:01:41.825Z,23.97
2017-07-30T00:02:22.365Z,23.95
2017-07-30T00:03:02.909Z,23.97
2017-07-30T00:03:43.441Z,23.97
2017-07-30T00:04:23.977Z,23.95
2017-07-30T00:05:04.510Z,23.98
2017-07-30T00:05:45.044Z,23.97
2017-07-30T00:06:25.579Z,24.02
2017-07-30T00:07:06.105Z,24
2017-07-30T00:07:46.629Z,24.02
2017-07-30T00:08:27.174Z,23.97
2017-07-30T00:09:07.750Z,23.97
2017-07-30T00:09:48.278Z,23.94
2017-07-30T00:10:28.823Z,23.93
2017-07-30T00:11:09.363Z,23.97
2017-07-30T00:11:49.911Z,23.93
2017-07-30T00:12:30.450Z,23.93
2017-07-30T00:13:10.991Z,23.88
2017-07-30T00:13:51.534Z,23.94
2017-07-30T00:14:32.074Z,23.94
2017-07-30T00:15:12.614Z,23.91
2017-07-30T00:15:53.154Z,23.95
2017-07-30T00:16:33.700Z,23.93
2017-07-30T00:17:14.239Z,23.91
2017-07-30T00:17:54.789Z,23.9
2017-07-30T00:18:35.327Z,23.83
2017-07-30T00:19:15.867Z,23.83
2017-07-30T00:19:56.407Z,23.91
2017-07-30T00:20:36.967Z,23.93
2017-07-30T00:21:17.567Z,23.85
2017-07-30T00:21:58.109Z,23.87
2017-07-30T00:22:38.653Z,23.87
2017-07-30T00:23:19.198Z,23.84
2017-07-30T00:23:59.741Z,23.87
2017-07-30T00:24:40.273Z,23.9
2017-07-30T00:25:20.825Z,23.8
2017-07-30T00:26:01.368Z,23.83
2017-07-30T00:26:41.908Z,23.8
2017-07-30T00:27:22.446Z,23.85
2017-07-30T00:28:02.976Z,23.78
2017-07-30T00:28:43.517Z,23.75
2017-07-30T00:29:24.060Z,23.72
2017-07-30T00:30:04.604Z,23.73
2017-07-30T00:30:45.146Z,23.72
2017-07-30T00:31:25.687Z,23.72
2017-07-30T00:32:06.236Z,23.72
2017-07-30T00:32:46.779Z,23.72
2017-07-30T00:33:27.322Z,23.73
2017-07-30T00:34:07.860Z,23.72
2017-07-30T00:34:48.408Z,23.72
2017-07-30T00:35:28.947Z,23.61
2017-07-30T00:36:09.493Z,23.69
2017-07-30T00:36:50.028Z,23.55
2017-07-30T00:37:30.585Z,23.69
2017-07-30T00:38:11.110Z,23.65
2017-07-30T00:38:51.640Z,23.61
2017-07-30T00:39:32.190Z,23.58
2017-07-30T00:40:12.729Z,23.6
2017-07-30T00:40:53.266Z,23.6
2017-07-30T00:41:33.825Z,23.61
2017-07-30T00:42:14.369Z,23.57
2017-07-30T00:42:54.918Z,23.53
2017-07-30T00:43:35.459Z,23.57
2017-07-30T00:44:15.993Z,23.42
2017-07-30T00:44:56.527Z,23.5
2017-07-30T00:45:37.053Z,23.5
2017-07-30T00:46:17.586Z,23.47
2017-07-30T00:46:58.120Z,23.51
2017-07-30T00:47:38.662Z,23.47
2017-07-30T00:48:19.188Z,23.47
2017-07-30T00:48:59.730Z,23.5
2017-07-30T00:49:40.275Z,23.5
2017-07-30T00:50:20.805Z,23.47
2017-07-30T00:51:01.324Z,23.46
2017-07-30T00:51:41.848Z,23.42
2017-07-30T00:52:22.394Z,23.39
2017-07-30T00:53:02.941Z,23.47
2017-07-30T00:53:43.475Z,23.46
2017-07-30T00:54:24.006Z,23.42
2017-07-30T00:55:04.564Z,23.39
2017-07-30T00:55:45.103Z,23.33
2017-07-30T00:56:25.650Z,23.39
2017-07-30T00:57:06.192Z,23.4
2017-07-30T00:57:46.726Z,23.32
2017-07-30T00:58:27.257Z,23.33
2017-07-30T00:59:07.792Z,23.31
2017-07-30T00:59:48.329Z,23.39
2017-07-30T01:00:28.877Z,23.31
2017-07-30T01:01:09.421Z,23.28
2017-07-30T01:01:49.967Z,23.28
2017-07-30T01:02:30.507Z,23.33
2017-07-30T01:03:11.043Z,23.28
2017-07-30T01:03:51.586Z,23.28
2017-07-30T01:04:32.128Z,23.28
2017-07-30T01:05:12.653Z,23.2
2017-07-30T01:05:53.199Z,23.35
2017-07-30T01:06:33.723Z,23.31
2017-07-30T01:07:14.265Z,23.31
2017-07-30T01:07:54.796Z,23.33
2017-07-30T01:08:35.330Z,23.27
2017-07-30T01:09:15.866Z,23.2
2017-07-30T01:09:56.400Z,23.2
2017-07-30T01:10:36.967Z,23.27
2017-07-30T01:11:17.501Z,23.17
2017-07-30T01:11:58.058Z,23.27
2017-07-30T01:12:38.580Z,23.23
2017-07-30T01:13:19.123Z,23.25
2017-07-30T01:13:59.662Z,23.22
2017-07-30T01:14:40.198Z,23.23
2017-07-30T01:15:20.749Z,23.25
2017-07-30T01:16:01.309Z,23.2
2017-07-30T01:16:41.849Z,23.19
2017-07-30T01:17:22.384Z,23.19
2017-07-30T01:18:02.926Z,23.22
2017-07-30T01:18:43.464Z,23.17
2017-07-30T01:19:24.004Z,23.17
2017-07-30T01:20:04.548Z,23.16
2017-07-30T01:20:45.105Z,23.16
2017-07-30T01:21:25.641Z,23.22
2017-07-30T01:22:06.179Z,23.16
2017-07-30T01:22:46.730Z,23.17
2017-07-30T01:23:27.275Z,23.22
2017-07-30T01:24:07.807Z,23.19
2017-07-30T01:24:48.349Z,23.2
2017-07-30T01:25:28.905Z,23.22
2017-07-30T01:26:09.431Z,23.16
2017-07-30T01:26:49.974Z,23.23
2017-07-30T01:27:30.514Z,23.19
2017-07-30T01:28:11.058Z,23.23
2017-07-30T01:28:51.588Z,23.13
2017-07-30T01:29:32.150Z,23.16
2017-07-30T01:30:12.697Z,23.16
2017-07-30T01:30:53.224Z,23.22
2017-07-30T01:31:33.770Z,23.17
2017-07-30T01:32:14.316Z,23.17
2017-07-30T01:32:54.851Z,23.16
2017-07-30T01:33:35.369Z,23.15
2017-07-30T01:34:15.934Z,23.15
2017-07-30T01:34:56.450Z,23.13
2017-07-30T01:35:36.988Z,23.12
2017-07-30T01:36:17.535Z,23.17
2017-07-30T01:36:58.069Z,23.13
2017-07-30T01:37:38.613Z,23.1
2017-07-30T01:38:19.154Z,23.17
2017-07-30T01:38:59.693Z,23.12
2017-07-30T01:39:40.235Z,23.07
2017-07-30T01:40:20.773Z,23.02
2017-07-30T01:41:01.320Z,23.1
2017-07-30T01:41:41.862Z,23.07
2017-07-30T01:42:22.398Z,23.04
2017-07-30T01:43:02.970Z,23.02
2017-07-30T01:43:43.515Z,23.05
2017-07-30T01:44:24.080Z,23.04
2017-07-30T01:45:04.640Z,23.07
2017-07-30T01:45:45.182Z,23
2017-07-30T01:46:25.755Z,23
2017-07-30T01:47:06.265Z,23
2017-07-30T01:47:46.806Z,23.04
2017-07-30T01:48:27.345Z,23.09
2017-07-30T01:49:07.873Z,23.1
2017-07-30T01:49:48.398Z,23.07
2017-07-30T01:50:28.938Z,23.1
2017-07-30T01:51:09.461Z,23.05
2017-07-30T01:51:49.995Z,23.05
2017-07-30T01:52:30.542Z,23.15
2017-07-30T01:53:11.064Z,23.1
2017-07-30T01:53:51.605Z,23.15
2017-07-30T01:54:32.135Z,23.07
2017-07-30T01:55:12.681Z,23.1
2017-07-30T01:55:53.209Z,23.1
2017-07-30T01:56:33.750Z,23.16
2017-07-30T01:57:14.289Z,23.2
2017-07-30T01:57:54.826Z,23.16
2017-07-30T01:58:35.399Z,23.17
2017-07-30T01:59:15.944Z,23.22
2017-07-30T01:59:56.486Z,23.2
2017-07-30T02:00:37.026Z,23.15
2017-07-30T02:01:17.559Z,23.13
2017-07-30T02:01:58.098Z,23.16
2017-07-30T02:02:38.651Z,23.13
2017-07-30T02:03:19.179Z,23.16
2017-07-30T02:03:59.761Z,23.12
2017-07-30T02:04:40.301Z,23.12
2017-07-30T02:05:20.842Z,23.16
2017-07-30T02:06:01.385Z,23.09
2017-07-30T02:06:41.926Z,23.05
2017-07-30T02:07:22.464Z,23.07
2017-07-30T02:08:02.996Z,23.04
2017-07-30T02:08:43.521Z,23.09
2017-07-30T02:09:24.056Z,23.01
2017-07-30T02:10:04.597Z,23.01
2017-07-30T02:10:45.134Z,23.04
2017-07-30T02:11:25.689Z,23.01
2017-07-30T02:12:06.239Z,23.07
2017-07-30T02:12:46.755Z,23.09
2017-07-30T02:13:27.292Z,23.15
2017-07-30T02:14:07.821Z,23.09
2017-07-30T02:14:48.363Z,23.13
2017-07-30T02:15:28.921Z,23
2017-07-30T02:16:09.459Z,23.1
2017-07-30T02:16:49.996Z,22.97
2017-07-30T02:17:30.542Z,23.04
2017-07-30T02:18:11.084Z,22.97
2017-07-30T02:18:51.623Z,23.07
2017-07-30T02:19:32.160Z,23.05
2017-07-30T02:20:12.691Z,22.97
2017-07-30T02:20:53.251Z,22.97
2017-07-30T02:21:33.771Z,23
2017-07-30T02:22:14.308Z,23
2017-07-30T02:22:54.853Z,23.01
2017-07-30T02:23:35.395Z,23
2017-07-30T02:24:15.930Z,22.98
2017-07-30T02:24:56.471Z,22.92
2017-07-30T02:25:37.018Z,22.94
2017-07-30T02:26:17.562Z,22.9
2017-07-30T02:26:58.086Z,22.83
2017-07-30T02:27:38.630Z,22.98
2017-07-30T02:28:19.180Z,22.9
2017-07-30T02:28:59.724Z,22.88
2017-07-30T02:29:40.266Z,22.88
2017-07-30T02:30:20.804Z,22.88
2017-07-30T02:31:01.352Z,22.83
2017-07-30T02:31:41.898Z,22.86
2017-07-30T02:32:22.441Z,22.86
2017-07-30T02:33:02.976Z,22.88
2017-07-30T02:33:43.516Z,22.88
2017-07-30T02:34:24.043Z,22.9
2017-07-30T02:35:04.589Z,22.83
2017-07-30T02:35:45.122Z,22.91
2017-07-30T02:36:25.660Z,22.88
2017-07-30T02:37:06.383Z,22.82
2017-07-30T02:37:46.940Z,22.79
2017-07-30T02:38:27.456Z,22.9
2017-07-30T02:39:07.987Z,22.86
2017-07-30T02:39:48.533Z,22.77
2017-07-30T02:40:29.070Z,22.85
2017-07-30T02:41:09.613Z,22.86
2017-07-30T02:41:50.150Z,22.77
2017-07-30T02:42:30.694Z,22.82
2017-07-30T02:43:11.239Z,22.83
2017-07-30T02:43:51.779Z,22.88
2017-07-30T02:44:32.315Z,22.86
2017-07-30T02:45:12.853Z,22.88
2017-07-30T02:45:53.399Z,22.91
2017-07-30T02:46:33.939Z,22.9
2017-07-30T02:47:14.479Z,22.86
2017-07-30T02:47:55.014Z,22.91
2017-07-30T02:48:35.589Z,22.82
2017-07-30T02:49:16.156Z,22.88
2017-07-30T02:49:56.675Z,22.95
2017-07-30T02:50:37.220Z,22.88
2017-07-30T02:51:17.764Z,22.88
2017-07-30T02:51:58.307Z,22.88
2017-07-30T02:52:38.851Z,22.85
2017-07-30T02:53:19.402Z,22.88
2017-07-30T02:53:59.942Z,22.83
2017-07-30T02:54:40.469Z,22.94
2017-07-30T02:55:21.003Z,22.83
2017-07-30T02:56:01.561Z,22.86
2017-07-30T02:56:42.101Z,22.86
2017-07-30T02:57:22.641Z,22.85
2017-07-30T02:58:03.185Z,22.9
2017-07-30T02:58:43.752Z,22.88
2017-07-30T02:59:24.277Z,22.91
2017-07-30T03:00:04.812Z,22.9
2017-07-30T03:00:45.346Z,22.91
2017-07-30T03:01:25.875Z,22.72
2017-07-30T03:02:06.416Z,22.83
2017-07-30T03:02:46.964Z,22.77
2017-07-30T03:03:27.490Z,22.85
2017-07-30T03:04:08.041Z,22.8
2017-07-30T03:04:48.598Z,22.73
2017-07-30T03:05:29.141Z,22.75
2017-07-30T03:06:09.693Z,22.64
2017-07-30T03:06:50.233Z,22.75
2017-07-30T03:07:30.757Z,22.77
2017-07-30T03:08:11.284Z,22.73
2017-07-30T03:08:51.831Z,22.73
2017-07-30T03:09:32.380Z,22.7
2017-07-30T03:10:12.900Z,22.62
2017-07-30T03:10:53.442Z,22.67
2017-07-30T03:11:33.981Z,22.62
2017-07-30T03:12:14.513Z,22.68
2017-07-30T03:12:55.099Z,22.61
2017-07-30T03:13:35.658Z,22.54
2017-07-30T03:14:16.203Z,22.6
2017-07-30T03:14:56.747Z,22.54
2017-07-30T03:15:37.283Z,22.64
2017-07-30T03:16:17.832Z,22.6
2017-07-30T03:16:58.363Z,22.57
2017-07-30T03:17:38.921Z,22.52
2017-07-30T03:18:19.462Z,22.49
2017-07-30T03:18:59.993Z,22.54
2017-07-30T03:19:40.537Z,22.47
2017-07-30T03:20:21.078Z,22.49
2017-07-30T03:21:01.621Z,22.47
2017-07-30T03:21:42.164Z,22.33
2017-07-30T03:22:22.708Z,22.39
2017-07-30T03:23:03.256Z,22.46
2017-07-30T03:23:43.788Z,22.31
2017-07-30T03:24:24.301Z,22.33
2017-07-30T03:25:04.839Z,22.3
2017-07-30T03:25:45.385Z,22.33
2017-07-30T03:26:25.950Z,22.33
2017-07-30T03:27:06.450Z,22.33
2017-07-30T03:27:46.991Z,22.27
2017-07-30T03:28:27.537Z,22.27
2017-07-30T03:29:08.091Z,22.25
2017-07-30T03:29:48.636Z,22.27
2017-07-30T03:30:29.154Z,22.33
2017-07-30T03:31:09.709Z,22.25
2017-07-30T03:31:50.245Z,22.21
2017-07-30T03:32:30.804Z,22.22
2017-07-30T03:33:11.322Z,22.24
2017-07-30T03:33:51.858Z,22.15
2017-07-30T03:34:32.411Z,22.2
2017-07-30T03:35:12.934Z,22.2
2017-07-30T03:35:53.475Z,22.17
2017-07-30T03:36:34.011Z,22.22
2017-07-30T03:37:14.555Z,22.17
2017-07-30T03:37:55.146Z,22.15
2017-07-30T03:38:35.690Z,22.12
2017-07-30T03:39:16.220Z,22.15
2017-07-30T03:39:56.764Z,22.1
2017-07-30T03:40:37.307Z,22.1
2017-07-30T03:41:17.846Z,22.15
2017-07-30T03:41:58.391Z,22.14
2017-07-30T03:42:38.930Z,22.06
2017-07-30T03:43:19.529Z,22.17
2017-07-30T03:44:00.009Z,22.02
2017-07-30T03:44:40.542Z,22.06
2017-07-30T03:45:21.072Z,22.06
2017-07-30T03:46:01.604Z,22
2017-07-30T03:46:42.141Z,22
2017-07-30T03:47:22.681Z,22.07
2017-07-30T03:48:03.217Z,21.96
2017-07-30T03:48:43.759Z,22.02
2017-07-30T03:49:24.297Z,21.98
2017-07-30T03:50:04.842Z,22
2017-07-30T03:50:45.389Z,21.99
2017-07-30T03:51:25.924Z,21.9
2017-07-30T03:52:06.455Z,21.94
2017-07-30T03:52:47.008Z,21.99
2017-07-30T03:53:27.575Z,21.94
2017-07-30T03:54:08.077Z,21.9
2017-07-30T03:54:48.613Z,21.9
2017-07-30T03:55:29.143Z,21.92
2017-07-30T03:56:09.681Z,21.92
2017-07-30T03:56:50.234Z,21.92
2017-07-30T03:57:30.742Z,21.86
2017-07-30T03:58:11.291Z,21.9
2017-07-30T03:58:51.825Z,21.88
2017-07-30T03:59:32.360Z,21.92
2017-07-30T04:00:12.944Z,21.88
2017-07-30T04:00:53.594Z,21.91
2017-07-30T04:01:34.133Z,21.82
2017-07-30T04:02:14.684Z,21.71
2017-07-30T04:02:55.228Z,21.8
2017-07-30T04:03:35.775Z,21.8
2017-07-30T04:04:16.319Z,21.79
2017-07-30T04:04:56.845Z,21.8
2017-07-30T04:05:37.370Z,21.75
2017-07-30T04:06:17.940Z,21.71
2017-07-30T04:06:58.462Z,21.69
2017-07-30T04:07:39.003Z,21.67
2017-07-30T04:08:19.557Z,21.65
2017-07-30T04:09:00.102Z,21.77
2017-07-30T04:09:40.619Z,21.67
2017-07-30T04:10:21.151Z,21.68
2017-07-30T04:11:01.696Z,21.75
2017-07-30T04:11:42.238Z,21.65
2017-07-30T04:12:22.797Z,21.79
2017-07-30T04:13:03.310Z,21.74
2017-07-30T04:13:43.848Z,21.71
2017-07-30T04:14:24.384Z,21.71
2017-07-30T04:15:04.925Z,21.71
2017-07-30T04:15:45.464Z,21.77
2017-07-30T04:16:26.002Z,21.69
2017-07-30T04:17:06.537Z,21.75
2017-07-30T04:17:47.081Z,21.72
2017-07-30T04:18:27.617Z,21.72
2017-07-30T04:19:08.143Z,21.68
2017-07-30T04:19:48.687Z,21.74
2017-07-30T04:20:29.206Z,21.69
2017-07-30T04:21:09.735Z,21.65
2017-07-30T04:21:50.282Z,21.68
2017-07-30T04:22:30.804Z,21.69
2017-07-30T04:23:11.335Z,21.68
2017-07-30T04:23:51.875Z,21.65
2017-07-30T04:24:32.414Z,21.72
2017-07-30T04:25:12.954Z,21.65
2017-07-30T04:25:53.489Z,21.64
2017-07-30T04:26:34.031Z,21.72
2017-07-30T04:27:14.573Z,21.62
2017-07-30T04:27:55.122Z,21.65
2017-07-30T04:28:35.668Z,21.69
2017-07-30T04:29:16.205Z,21.69
2017-07-30T04:29:56.746Z,21.65
2017-07-30T04:30:37.268Z,21.71
2017-07-30T04:31:17.806Z,21.69
2017-07-30T04:31:58.343Z,21.71
2017-07-30T04:32:38.897Z,21.64
2017-07-30T04:33:19.423Z,21.62
2017-07-30T04:33:59.984Z,21.71
2017-07-30T04:34:40.581Z,21.71
2017-07-30T04:35:21.124Z,21.52
2017-07-30T04:36:01.666Z,21.64
2017-07-30T04:36:42.205Z,21.62
2017-07-30T04:37:22.732Z,21.56
2017-07-30T04:38:03.283Z,21.68
2017-07-30T04:38:43.819Z,21.59
2017-07-30T04:39:24.358Z,21.54
2017-07-30T04:40:04.900Z,21.53
2017-07-30T04:40:45.430Z,21.54
2017-07-30T04:41:25.965Z,21.54
2017-07-30T04:42:06.507Z,21.52
2017-07-30T04:42:47.047Z,21.52
2017-07-30T04:43:27.583Z,21.46
2017-07-30T04:44:08.119Z,21.34
2017-07-30T04:44:48.653Z,21.34
2017-07-30T04:45:29.220Z,21.35
2017-07-30T04:46:09.757Z,21.35
2017-07-30T04:46:50.278Z,21.38
2017-07-30T04:47:30.835Z,21.31
2017-07-30T04:48:11.353Z,21.31
2017-07-30T04:48:51.891Z,21.29
2017-07-30T04:49:32.476Z,21.32
2017-07-30T04:50:13.029Z,21.32
2017-07-30T04:50:53.547Z,21.32
2017-07-30T04:51:34.095Z,21.29
2017-07-30T04:52:14.635Z,21.16
2017-07-30T04:52:55.163Z,21.21
2017-07-30T04:53:35.691Z,21.22
2017-07-30T04:54:16.238Z,21.21
2017-07-30T04:54:56.783Z,21.19
2017-07-30T04:55:37.318Z,21.14
2017-07-30T04:56:17.862Z,21.13
2017-07-30T04:56:58.400Z,21.12
2017-07-30T04:57:38.950Z,21.19
2017-07-30T04:58:19.490Z,21.16
2017-07-30T04:59:00.025Z,21.13
2017-07-30T04:59:40.548Z,21.06
2017-07-30T05:00:21.073Z,20.99
2017-07-30T05:01:01.628Z,20.98
2017-07-30T05:01:42.148Z,21.07
2017-07-30T05:02:22.684Z,21.07
2017-07-30T05:03:03.222Z,20.94
2017-07-30T05:03:43.746Z,20.98
2017-07-30T05:04:24.296Z,20.99
2017-07-30T05:05:04.828Z,21.04
2017-07-30T05:05:45.376Z,21.04
2017-07-30T05:06:25.928Z,21.01
2017-07-30T05:07:06.466Z,21.09
2017-07-30T05:07:47.010Z,20.97
2017-07-30T05:08:27.557Z,21.01
2017-07-30T05:09:08.182Z,21.04
2017-07-30T05:09:48.713Z,21.1
2017-07-30T05:10:29.253Z,21.12
2017-07-30T05:11:09.784Z,21.09
2017-07-30T05:11:50.351Z,21.01
2017-07-30T05:12:30.890Z,21.01
2017-07-30T05:13:11.414Z,21.13
2017-07-30T05:13:51.971Z,21.13
2017-07-30T05:14:32.532Z,21.1
2017-07-30T05:15:13.071Z,21.13
2017-07-30T05:15:53.607Z,21.13
2017-07-30T05:16:34.149Z,21.1
2017-07-30T05:17:14.697Z,21.1
2017-07-30T05:17:55.237Z,21.14
2017-07-30T05:18:35.769Z,21.07
2017-07-30T05:19:16.319Z,21.16
2017-07-30T05:19:56.844Z,21.13
2017-07-30T05:20:37.386Z,21.16
2017-07-30T05:21:17.915Z,21.24
2017-07-30T05:21:58.446Z,21.16
2017-07-30T05:22:38.978Z,21.19
2017-07-30T05:23:19.501Z,21.21
2017-07-30T05:24:00.048Z,21.22
2017-07-30T05:24:40.600Z,21.19
2017-07-30T05:25:21.137Z,21.21
2017-07-30T05:26:01.682Z,21.21
2017-07-30T05:26:42.209Z,21.32
2017-07-30T05:27:22.741Z,21.22
2017-07-30T05:28:03.284Z,21.34
2017-07-30T05:28:43.819Z,21.29
2017-07-30T05:29:24.355Z,21.25
2017-07-30T05:30:04.901Z,21.38
2017-07-30T05:30:45.440Z,21.22
2017-07-30T05:31:25.987Z,21.24
2017-07-30T05:32:06.531Z,21.27
2017-07-30T05:32:47.073Z,21.24
2017-07-30T05:33:27.606Z,21.21
2017-07-30T05:34:08.144Z,21.21
2017-07-30T05:34:48.679Z,21.21
2017-07-30T05:35:29.216Z,21.35
2017-07-30T05:36:09.746Z,21.32
2017-07-30T05:36:50.269Z,21.32
2017-07-30T05:37:30.813Z,21.31
2017-07-30T05:38:11.355Z,21.25
2017-07-30T05:38:51.886Z,21.35
2017-07-30T05:39:32.426Z,21.32
2017-07-30T05:40:12.960Z,21.32
2017-07-30T05:40:53.504Z,21.38
2017-07-30T05:41:34.026Z,21.43
2017-07-30T05:42:14.573Z,21.47
2017-07-30T05:42:55.113Z,21.49
2017-07-30T05:43:35.651Z,21.54
2017-07-30T05:44:16.186Z,21.5
2017-07-30T05:44:56.728Z,21.54
2017-07-30T05:45:37.268Z,21.47
2017-07-30T05:46:17.815Z,21.5
2017-07-30T05:46:58.358Z,21.5
2017-07-30T05:47:38.902Z,21.43
2017-07-30T05:48:19.456Z,21.46
2017-07-30T05:48:59.998Z,21.46
2017-07-30T05:49:40.533Z,21.49
2017-07-30T05:50:21.062Z,21.5
2017-07-30T05:51:03.128Z,21.46
2017-07-30T05:51:44.016Z,21.35
2017-07-30T05:52:24.376Z,21.44
2017-07-30T05:53:05.250Z,21.43
2017-07-30T05:53:45.783Z,21.47
2017-07-30T05:54:26.323Z,21.52
2017-07-30T05:55:06.860Z,21.46
2017-07-30T05:55:47.393Z,21.62
2017-07-30T05:56:27.938Z,21.65
2017-07-30T05:57:08.485Z,21.69
2017-07-30T05:57:49.027Z,21.53
2017-07-30T05:58:29.567Z,21.67
2017-07-30T05:59:10.308Z,21.67
2017-07-30T05:59:50.885Z,21.74
2017-07-30T06:00:31.436Z,21.71
2017-07-30T06:01:11.970Z,21.77
2017-07-30T06:01:52.528Z,21.82
2017-07-30T06:02:33.086Z,21.9
2017-07-30T06:03:13.637Z,21.96
2017-07-30T06:03:54.173Z,21.86
2017-07-30T06:04:34.723Z,22
2017-07-30T06:05:15.262Z,22.07
2017-07-30T06:05:55.795Z,22.12
2017-07-30T06:06:36.335Z,22.09
2017-07-30T06:07:16.862Z,22.22
2017-07-30T06:07:57.406Z,22.2
2017-07-30T06:08:37.941Z,22.25
2017-07-30T06:09:18.477Z,22.27
2017-07-30T06:09:59.020Z,22.31
2017-07-30T06:10:39.569Z,22.31
2017-07-30T06:11:20.110Z,22.35
2017-07-30T06:12:00.652Z,22.35
2017-07-30T06:12:41.175Z,22.51
2017-07-30T06:13:21.712Z,22.54
2017-07-30T06:14:02.249Z,22.55
2017-07-30T06:14:42.801Z,22.68
2017-07-30T06:15:23.329Z,22.67
2017-07-30T06:16:03.867Z,22.88
2017-07-30T06:16:44.411Z,22.88
2017-07-30T06:17:24.957Z,22.98
2017-07-30T06:18:05.511Z,22.97
2017-07-30T06:18:46.047Z,23.07
2017-07-30T06:19:26.585Z,23.04
2017-07-30T06:20:07.110Z,23.15
2017-07-30T06:20:47.659Z,23.2
2017-07-30T06:21:28.204Z,23.22
2017-07-30T06:22:08.747Z,23.31
2017-07-30T06:22:49.288Z,23.35
2017-07-30T06:23:29.829Z,23.39
2017-07-30T06:24:10.383Z,23.47
2017-07-30T06:24:50.925Z,23.43
2017-07-30T06:25:31.474Z,23.54
2017-07-30T06:26:12.048Z,23.57
2017-07-30T06:26:52.601Z,23.58
2017-07-30T06:27:33.147Z,23.61
2017-07-30T06:28:13.692Z,23.7
2017-07-30T06:28:54.244Z,23.72
2017-07-30T06:29:34.798Z,23.72
2017-07-30T06:30:16.228Z,23.84
2017-07-30T06:30:56.800Z,23.9
2017-07-30T06:31:37.400Z,23.9
2017-07-30T06:32:18.112Z,24
2017-07-30T06:32:58.776Z,23.98
2017-07-30T06:33:39.510Z,23.97
2017-07-30T06:34:20.241Z,24.08
2017-07-30T06:35:00.952Z,24.1
2017-07-30T06:35:41.701Z,24.2
2017-07-30T06:36:22.423Z,24.15
2017-07-30T06:37:03.077Z,24.15
2017-07-30T06:37:43.597Z,24.18
2017-07-30T06:38:24.245Z,24.18
2017-07-30T06:39:05.006Z,24.18
2017-07-30T06:39:45.926Z,24.18
2017-07-30T06:40:26.437Z,24.28
2017-07-30T06:41:06.999Z,24.39
2017-07-30T06:41:47.573Z,24.35
2017-07-30T06:42:28.259Z,24.39
2017-07-30T06:43:08.931Z,24.43
2017-07-30T06:43:49.515Z,24.4
2017-07-30T06:44:30.149Z,24.4
2017-07-30T06:45:11.055Z,24.45
2017-07-30T06:45:51.743Z,24.45
2017-07-30T06:46:32.805Z,24.58
2017-07-30T06:47:13.300Z,24.6
2017-07-30T06:47:53.958Z,24.64
2017-07-30T06:48:34.593Z,24.6
2017-07-30T06:49:15.405Z,24.68
2017-07-30T06:49:56.217Z,24.6
2017-07-30T06:50:37.207Z,24.57
2017-07-30T06:51:18.387Z,24.68
2017-07-30T06:51:59.080Z,24.67
2017-07-30T06:52:39.619Z,24.65
2017-07-30T06:53:20.231Z,24.68
2017-07-30T06:54:00.845Z,24.65
2017-07-30T06:54:41.457Z,24.65
2017-07-30T06:55:22.575Z,24.69
2017-07-30T06:56:03.145Z,24.69
2017-07-30T06:56:43.735Z,24.77
2017-07-30T06:57:24.738Z,24.71
2017-07-30T06:58:05.246Z,24.78
2017-07-30T06:58:46.202Z,24.87
2017-07-30T06:59:26.892Z,24.9
2017-07-30T07:00:07.521Z,24.91
2017-07-30T07:00:48.411Z,24.9
2017-07-30T07:01:29.199Z,24.98
2017-07-30T07:02:09.924Z,24.96
2017-07-30T07:02:50.554Z,24.99
2017-07-30T07:03:31.273Z,24.95
2017-07-30T07:04:11.982Z,25.03
2017-07-30T07:04:52.886Z,25.03
2017-07-30T07:05:33.754Z,25.06
2017-07-30T07:06:14.587Z,25.08
2017-07-30T07:06:55.185Z,25.08
2017-07-30T07:07:36.184Z,25.06
2017-07-30T07:08:16.929Z,25.14
2017-07-30T07:08:57.669Z,25.09
2017-07-30T07:09:38.479Z,25.05
2017-07-30T07:10:19.320Z,25.08
2017-07-30T07:11:00.131Z,25.05
2017-07-30T07:11:40.994Z,25.08
2017-07-30T07:12:21.792Z,25.06
2017-07-30T07:13:02.543Z,25.1
2017-07-30T07:13:43.390Z,25.05
2017-07-30T07:14:24.070Z,25.1
2017-07-30T07:15:04.697Z,25.14
2017-07-30T07:15:45.530Z,25.08
2017-07-30T07:16:26.415Z,25.08
2017-07-30T07:17:07.286Z,25.1
2017-07-30T07:17:47.910Z,25.13
2017-07-30T07:18:28.579Z,25.06
2017-07-30T07:19:09.317Z,25.06
2017-07-30T07:19:49.966Z,25.23
2017-07-30T07:20:30.867Z,25.18
2017-07-30T07:21:11.668Z,25.28
2017-07-30T07:21:53.169Z,25.23
2017-07-30T07:22:33.985Z,25.24
2017-07-30T07:23:14.801Z,25.24
2017-07-30T07:23:55.662Z,25.18
2017-07-30T07:24:37.291Z,25.03
2017-07-30T07:25:18.012Z,25.06
2017-07-30T07:25:58.744Z,25.06
2017-07-30T07:26:39.593Z,25.05
2017-07-30T07:27:22.876Z,25.21
2017-07-30T07:28:05.294Z,25.17
2017-07-30T07:28:46.828Z,25.21
2017-07-30T07:29:28.553Z,25.32
2017-07-30T07:30:09.844Z,25.36
2017-07-30T07:30:50.776Z,25.46
2017-07-30T07:31:32.127Z,25.46
2017-07-30T07:32:12.898Z,25.58
2017-07-30T07:32:53.682Z,25.61
2017-07-30T07:33:34.271Z,25.72
2017-07-30T07:34:14.970Z,25.72
2017-07-30T07:34:55.639Z,25.69
2017-07-30T07:35:36.210Z,25.76
2017-07-30T07:36:17.246Z,25.79
2017-07-30T07:36:57.810Z,25.97
2017-07-30T07:37:38.357Z,25.94
2017-07-30T07:38:18.948Z,25.9
2017-07-30T07:38:59.481Z,25.92
2017-07-30T07:39:40.042Z,25.94
2017-07-30T07:40:20.585Z,25.82
2017-07-30T07:41:01.135Z,25.8
2017-07-30T07:41:41.678Z,25.73
2017-07-30T07:42:22.223Z,25.65
2017-07-30T07:43:03.262Z,25.62
2017-07-30T07:43:43.810Z,25.62
2017-07-30T07:44:24.399Z,25.67
2017-07-30T07:45:04.919Z,25.69
2017-07-30T07:45:45.756Z,25.61
2017-07-30T07:46:26.312Z,25.69
2017-07-30T07:47:07.079Z,25.69
2017-07-30T07:47:47.809Z,25.79
2017-07-30T07:48:28.430Z,25.82
2017-07-30T07:49:09.210Z,25.83
2017-07-30T07:49:49.921Z,25.85
2017-07-30T07:50:30.471Z,25.79
2017-07-30T07:51:11.001Z,25.77
2017-07-30T07:51:51.654Z,25.88
2017-07-30T07:52:32.405Z,25.87
2017-07-30T07:53:13.110Z,25.95
2017-07-30T07:53:54.033Z,25.94
2017-07-30T07:54:35.143Z,25.92
2017-07-30T07:55:16.035Z,25.9
2017-07-30T07:55:57.311Z,25.97
2017-07-30T07:56:38.146Z,25.97
2017-07-30T07:57:19.323Z,26.02
2017-07-30T07:58:00.512Z,26.12
2017-07-30T07:58:41.569Z,26.09
2017-07-30T07:59:22.040Z,26.09
2017-07-30T08:00:02.584Z,26.1
2017-07-30T08:00:43.193Z,26.09
2017-07-30T08:01:23.728Z,26.17
2017-07-30T08:02:04.255Z,26.15
2017-07-30T08:02:44.803Z,26.18
2017-07-30T08:03:25.368Z,26.23
2017-07-30T08:04:05.904Z,26.2
2017-07-30T08:04:46.438Z,26.25
2017-07-30T08:05:26.983Z,26.3
2017-07-30T08:06:07.491Z,26.13
2017-07-30T08:06:48.011Z,26.21
2017-07-30T08:07:28.531Z,26.07
2017-07-30T08:08:09.047Z,25.95
2017-07-30T08:08:49.614Z,25.94
2017-07-30T08:09:30.119Z,25.95
2017-07-30T08:10:10.646Z,25.85
2017-07-30T08:10:51.147Z,25.77
2017-07-30T08:11:31.678Z,25.73
2017-07-30T08:12:12.231Z,25.62
2017-07-30T08:12:52.729Z,25.55
2017-07-30T08:13:33.255Z,25.45
2017-07-30T08:14:13.777Z,25.42
2017-07-30T08:14:54.330Z,25.5
2017-07-30T08:15:34.838Z,25.4
2017-07-30T08:16:15.381Z,25.42
2017-07-30T08:16:55.903Z,25.51
2017-07-30T08:17:36.434Z,25.5
2017-07-30T08:18:17.019Z,25.5
2017-07-30T08:18:57.546Z,25.6
2017-07-30T08:19:38.079Z,25.6
2017-07-30T08:20:18.628Z,25.65
2017-07-30T08:20:59.145Z,25.67
2017-07-30T08:21:39.674Z,25.73
2017-07-30T08:22:20.212Z,25.79
2017-07-30T08:23:00.735Z,25.82
2017-07-30T08:23:41.273Z,25.8
2017-07-30T08:24:21.839Z,25.75
2017-07-30T08:25:02.373Z,25.76
2017-07-30T08:25:42.943Z,25.69
2017-07-30T08:26:23.482Z,25.72
2017-07-30T08:27:04.022Z,25.7
2017-07-30T08:27:44.537Z,25.76
2017-07-30T08:28:25.086Z,25.77
2017-07-30T08:29:05.620Z,25.85
2017-07-30T08:29:46.167Z,25.98
2017-07-30T08:30:26.704Z,25.97
2017-07-30T08:31:07.235Z,25.91
2017-07-30T08:31:47.796Z,25.98
2017-07-30T08:32:28.314Z,26.02
2017-07-30T08:33:08.863Z,26.02
2017-07-30T08:33:49.411Z,26.05
2017-07-30T08:34:29.964Z,26.06
2017-07-30T08:35:10.495Z,26.01
2017-07-30T08:35:51.037Z,26.15
2017-07-30T08:36:31.575Z,26.18
2017-07-30T08:37:12.105Z,26.26
2017-07-30T08:37:52.626Z,26.18
2017-07-30T08:38:33.154Z,26.12
2017-07-30T08:39:13.680Z,26.21
2017-07-30T08:39:54.221Z,26.09
2017-07-30T08:40:34.766Z,26.13
2017-07-30T08:41:15.290Z,26.2
2017-07-30T08:41:55.821Z,26.23
2017-07-30T08:42:36.372Z,26.23
2017-07-30T08:43:16.906Z,26.23
2017-07-30T08:43:57.505Z,26.33
2017-07-30T08:44:38.017Z,26.43
2017-07-30T08:45:18.558Z,26.48